Terminal Aerodrome Forecast
Issued by NWS Chicago, IL

Home | Current Version | Previous Version | Graphics & Text | Print | Product List | Glossary On
Versions: 1 2 3 4 5 6 7 8 9 10 11 12 13 14 15 16 17 18 19 20 21 22 23 24 25 26 27 28 29 30
000
FTUS43 KLOT 291139
TAFRFD
TAF
KRFD 291139Z 2912/3012 04006KT P6SM VCSH OVC015
     FM291400 04006KT P6SM VCSH BKN035
     FM291600 06008KT 6SM -SHRA VCTS BKN025CB
      TEMPO 2918/2921 3SM TSRA OVC025CB
     FM300100 04006KT P6SM VCSH BKN040=

USA.gov is the U.S. government's official web portal to all federal, state and local government web resources and services.